Time;durP1;ratioP1;P1;durP2;ratioP2;P2;SDS_P1;SDS_P2;PMS_P1;PMS_P2;Temp;Humidity;BMP_temperature;BMP_pressure;BME280_temperature;BME280_humidity;BME280_pressure;Samples;Min_cycle;Max_cycle;Signal;HPM_P1;HPM_P2
2021/06/20 00:00:27;;;;;;;4.95;3.55;;;20.80;99.90;;;;;;5030433;28;20207;-75
2021/06/20 00:02:56;;;;;;;4.10;3.45;;;20.80;99.90;;;;;;5030841;28;20212;-74
2021/06/20 00:05:25;;;;;;;4.35;3.53;;;20.80;99.90;;;;;;5030101;28;20231;-74
2021/06/20 00:07:52;;;;;;;4.30;3.50;;;20.80;99.90;;;;;;5030780;28;20281;-74
2021/06/20 00:10:22;;;;;;;7.18;3.13;;;20.70;99.90;;;;;;5030552;28;20684;-74
2021/06/20 00:12:50;;;;;;;5.47;3.33;;;20.70;99.90;;;;;;5030956;28;20234;-74
2021/06/20 00:15:20;;;;;;;9.85;4.57;;;20.60;99.90;;;;;;5030670;28;20265;-73
2021/06/20 00:17:47;;;;;;;4.30;2.80;;;20.50;99.90;;;;;;5030305;28;20204;-73
2021/06/20 00:20:19;;;;;;;4.75;3.28;;;20.40;99.90;;;;;;5030471;28;20265;-80
2021/06/20 00:22:47;;;;;;;7.82;3.45;;;20.50;99.90;;;;;;5030835;28;20207;-83
2021/06/20 00:25:14;;;;;;;3.78;3.13;;;20.40;99.90;;;;;;5029652;28;20231;-79
2021/06/20 00:27:42;;;;;;;6.70;3.33;;;20.40;99.90;;;;;;5030481;28;20262;-77
2021/06/20 00:30:11;;;;;;;3.53;3.22;;;20.40;99.90;;;;;;5031024;28;20268;-79
2021/06/20 00:32:39;;;;;;;4.93;3.15;;;20.40;99.90;;;;;;5030400;28;20211;-78
2021/06/20 00:35:07;;;;;;;5.35;4.22;;;20.40;99.90;;;;;;5030667;28;20249;-80
2021/06/20 00:37:35;;;;;;;5.75;3.80;;;20.30;99.90;;;;;;5024084;28;20290;-79
2021/06/20 00:40:03;;;;;;;9.20;8.32;;;20.30;99.90;;;;;;5012711;28;20208;-79
2021/06/20 00:42:30;;;;;;;6.20;4.13;;;20.30;99.90;;;;;;5030296;28;20204;-79
2021/06/20 00:44:57;;;;;;;4.13;3.35;;;20.30;99.90;;;;;;5030336;28;20243;-79
2021/06/20 00:47:24;;;;;;;5.20;4.07;;;20.30;99.90;;;;;;5029827;28;20269;-79
2021/06/20 00:49:51;;;;;;;7.85;4.53;;;20.30;99.90;;;;;;5030483;28;20630;-81
2021/06/20 00:52:19;;;;;;;5.00;3.72;;;20.20;99.90;;;;;;5030050;28;20207;-75
2021/06/20 00:54:48;;;;;;;5.45;4.13;;;20.20;99.90;;;;;;5030678;28;20261;-74
2021/06/20 00:57:16;;;;;;;8.30;3.42;;;20.30;99.90;;;;;;5029643;28;20207;-73
2021/06/20 00:59:43;;;;;;;6.18;3.70;;;20.50;99.90;;;;;;5030542;28;20211;-74
2021/06/20 01:02:11;;;;;;;3.47;3.17;;;20.50;99.90;;;;;;5030492;28;20207;-80
2021/06/20 01:04:39;;;;;;;9.32;3.58;;;20.50;99.90;;;;;;5030787;28;20777;-81
2021/06/20 01:07:06;;;;;;;5.32;4.07;;;20.50;99.90;;;;;;5030091;28;20261;-80
2021/06/20 01:09:33;;;;;;;8.02;4.82;;;20.40;99.90;;;;;;5030014;28;20718;-80
2021/06/20 01:12:02;;;;;;;7.00;4.63;;;20.50;99.90;;;;;;5030206;28;20244;-74
2021/06/20 01:14:29;;;;;;;3.83;3.53;;;20.40;99.90;;;;;;5029604;28;20211;-74
2021/06/20 01:16:57;;;;;;;8.02;4.63;;;20.20;99.90;;;;;;5029772;28;20671;-73
2021/06/20 01:19:24;;;;;;;4.35;3.95;;;20.10;99.90;;;;;;5029633;28;20211;-74
2021/06/20 01:21:51;;;;;;;5.28;4.78;;;20.20;99.90;;;;;;5030362;28;20265;-74
2021/06/20 01:24:22;;;;;;;6.28;3.75;;;20.20;99.90;;;;;;5029720;28;20231;-74
2021/06/20 01:26:49;;;;;;;4.05;3.65;;;20.20;99.90;;;;;;5029705;28;20573;-73
2021/06/20 01:29:19;;;;;;;5.95;4.18;;;20.20;99.90;;;;;;5029160;28;20642;-74
2021/06/20 01:31:51;;;;;;;5.20;4.32;;;20.20;99.90;;;;;;5030161;28;20235;-74
2021/06/20 01:34:18;;;;;;;7.20;4.03;;;20.30;99.90;;;;;;5029729;28;20269;-74
2021/06/20 01:36:46;;;;;;;5.53;4.78;;;20.30;99.90;;;;;;5031054;28;20281;-75
2021/06/20 01:39:13;;;;;;;5.18;4.03;;;20.20;99.90;;;;;;5023616;28;20209;-74
2021/06/20 01:41:41;;;;;;;5.97;4.30;;;20.30;99.90;;;;;;5029317;28;20219;-75
2021/06/20 01:44:08;;;;;;;5.57;4.90;;;20.30;99.90;;;;;;5033886;28;20671;-74
2021/06/20 01:46:35;;;;;;;8.50;4.90;;;20.20;99.90;;;;;;5033330;28;20250;-74
2021/06/20 01:49:02;;;;;;;5.57;4.75;;;20.10;99.90;;;;;;5019598;28;20204;-74
2021/06/20 01:51:29;;;;;;;6.28;4.10;;;20.10;99.90;;;;;;5020219;28;20287;-73
2021/06/20 01:53:58;;;;;;;10.43;5.22;;;20.20;99.90;;;;;;5030157;28;20212;-75
2021/06/20 01:56:27;;;;;;;5.18;4.68;;;20.10;99.90;;;;;;5023102;28;20246;-73
2021/06/20 01:58:56;;;;;;;5.78;5.25;;;20.00;99.90;;;;;;5024090;28;20307;-78
2021/06/20 02:01:23;;;;;;;5.43;3.88;;;20.20;99.90;;;;;;5028398;28;20207;-81
2021/06/20 02:03:50;;;;;;;5.85;4.60;;;20.20;99.90;;;;;;5033476;28;20215;-80
2021/06/20 02:06:17;;;;;;;5.55;4.20;;;20.20;99.90;;;;;;5032337;28;20273;-80
2021/06/20 02:08:44;;;;;;;4.20;3.85;;;20.20;99.90;;;;;;5033637;28;20693;-80
2021/06/20 02:11:11;;;;;;;4.80;4.30;;;20.20;99.90;;;;;;5033474;28;20212;-74
2021/06/20 02:13:38;;;;;;;4.35;3.85;;;20.30;99.90;;;;;;5033227;28;20208;-74
2021/06/20 02:16:06;;;;;;;4.68;3.60;;;20.20;99.90;;;;;;5032815;28;20208;-73
2021/06/20 02:18:34;;;;;;;4.82;4.32;;;20.30;99.90;;;;;;5032314;28;20753;-73
2021/06/20 02:21:01;;;;;;;4.57;3.75;;;20.20;99.90;;;;;;5033217;28;20219;-74
2021/06/20 02:23:28;;;;;;;5.05;4.32;;;20.30;99.90;;;;;;5031730;28;20265;-73
2021/06/20 02:25:55;;;;;;;4.40;4.00;;;20.20;99.90;;;;;;5019800;28;20235;-73
2021/06/20 02:28:22;;;;;;;4.38;3.97;;;20.20;99.90;;;;;;5031935;28;20753;-73
2021/06/20 02:30:49;;;;;;;4.57;4.18;;;20.20;99.90;;;;;;5032761;28;20287;-73
2021/06/20 02:33:17;;;;;;;5.57;4.15;;;20.40;99.90;;;;;;5032243;28;20207;-73
2021/06/20 02:35:44;;;;;;;4.38;3.97;;;20.40;99.90;;;;;;5032450;28;20203;-73
2021/06/20 02:38:11;;;;;;;4.90;4.35;;;20.40;99.90;;;;;;5032248;28;20254;-74
2021/06/20 02:40:38;;;;;;;4.85;4.20;;;20.30;99.90;;;;;;5032724;28;20273;-73
2021/06/20 02:43:05;;;;;;;3.97;3.58;;;20.20;99.90;;;;;;5032535;28;20203;-72
2021/06/20 02:45:32;;;;;;;4.50;3.67;;;20.20;99.90;;;;;;5031670;28;20725;-73
2021/06/20 02:47:59;;;;;;;6.22;4.28;;;20.30;99.90;;;;;;5018344;28;20266;-73
2021/06/20 02:50:29;;;;;;;4.07;3.40;;;20.40;99.90;;;;;;5032074;28;20628;-74
2021/06/20 02:52:56;;;;;;;6.05;4.18;;;20.50;99.90;;;;;;5032040;28;20211;-74
2021/06/20 02:55:23;;;;;;;4.53;3.95;;;20.60;99.90;;;;;;5031933;28;20744;-73
2021/06/20 02:57:49;;;;;;;5.65;4.38;;;20.60;99.90;;;;;;5028921;28;20212;-74
2021/06/20 03:00:17;;;;;;;7.35;4.32;;;20.30;99.90;;;;;;5020806;28;20208;-73
2021/06/20 03:02:44;;;;;;;4.72;4.32;;;20.30;99.90;;;;;;5032208;28;20273;-73
2021/06/20 03:05:12;;;;;;;4.43;3.72;;;20.30;99.90;;;;;;5031974;28;20242;-73
2021/06/20 03:07:40;;;;;;;6.88;4.00;;;20.30;99.90;;;;;;5031970;28;20274;-74
2021/06/20 03:10:08;;;;;;;3.10;2.90;;;20.40;99.90;;;;;;5032447;28;20199;-71
2021/06/20 03:12:35;;;;;;;3.88;2.97;;;20.40;99.90;;;;;;5031358;28;20204;-72
2021/06/20 03:15:03;;;;;;;5.07;3.97;;;20.40;99.90;;;;;;5031878;28;20204;-72
2021/06/20 03:17:30;;;;;;;5.03;4.35;;;20.50;99.90;;;;;;5031102;28;20246;-71
2021/06/20 03:19:58;;;;;;;4.28;3.88;;;20.30;99.90;;;;;;5031858;28;20212;-73
2021/06/20 03:22:25;;;;;;;5.82;4.03;;;20.30;99.90;;;;;;5031552;28;20212;-73
2021/06/20 03:24:53;;;;;;;5.00;4.43;;;20.40;99.90;;;;;;5031646;28;20309;-73
2021/06/20 03:27:21;;;;;;;4.25;3.85;;;20.30;99.90;;;;;;5030652;28;20269;-73
2021/06/20 03:29:49;;;;;;;4.53;4.07;;;20.10;99.90;;;;;;5031409;28;20310;-74
2021/06/20 03:32:17;;;;;;;9.70;4.47;;;20.00;99.90;;;;;;5031206;28;20204;-74
2021/06/20 03:34:44;;;;;;;5.00;4.38;;;20.00;99.90;;;;;;5031560;28;20584;-74
2021/06/20 03:37:11;;;;;;;6.28;3.67;;;20.00;99.90;;;;;;5030963;28;20693;-74
2021/06/20 03:39:38;;;;;;;8.40;4.57;;;20.00;99.90;;;;;;5031928;28;20203;-83
2021/06/20 03:42:07;;;;;;;5.85;4.10;;;19.90;99.90;;;;;;5031336;28;20218;-81
2021/06/20 03:44:34;;;;;;;6.80;4.40;;;19.90;99.90;;;;;;5031119;28;20633;-74
2021/06/20 03:47:01;;;;;;;5.53;4.00;;;20.00;99.90;;;;;;5030983;28;20215;-73
2021/06/20 03:49:28;;;;;;;7.57;4.32;;;20.10;99.90;;;;;;5031053;28;20633;-72
2021/06/20 03:51:55;;;;;;;5.30;4.75;;;20.00;99.90;;;;;;5031413;28;20208;-74
2021/06/20 03:54:24;;;;;;;4.35;3.95;;;19.90;99.90;;;;;;5017440;28;20257;-82
2021/06/20 03:56:52;;;;;;;6.35;4.07;;;20.00;99.90;;;;;;5031024;28;20306;-82
2021/06/20 03:59:20;;;;;;;6.78;3.78;;;20.20;99.90;;;;;;5016069;28;20204;-81
2021/06/20 04:01:47;;;;;;;6.18;4.45;;;20.10;99.90;;;;;;5031302;28;20218;-82
2021/06/20 04:04:14;;;;;;;3.50;3.20;;;20.10;99.90;;;;;;5031020;28;20212;-83
2021/06/20 04:06:41;;;;;;;6.15;4.35;;;20.00;99.90;;;;;;5030696;28;20735;-73
2021/06/20 04:09:08;;;;;;;4.53;4.07;;;20.00;99.90;;;;;;5030976;28;20220;-74
2021/06/20 04:11:35;;;;;;;5.38;4.50;;;19.80;99.90;;;;;;5028165;28;20203;-74
2021/06/20 04:14:02;;;;;;;5.15;4.05;;;19.70;99.90;;;;;;5022764;28;20210;-76
2021/06/20 04:16:31;;;;;;;6.35;4.45;;;19.80;99.90;;;;;;5027787;28;20283;-73
2021/06/20 04:19:00;;;;;;;5.70;4.10;;;19.90;99.90;;;;;;5026525;28;20212;-72
2021/06/20 04:21:27;;;;;;;4.45;4.05;;;19.90;99.90;;;;;;5025232;28;20286;-73
2021/06/20 04:23:53;;;;;;;3.92;3.42;;;19.80;99.90;;;;;;5037127;28;20215;-73
2021/06/20 04:26:21;;;;;;;7.55;6.80;;;19.80;99.90;;;;;;5037005;28;20648;-77
2021/06/20 04:28:48;;;;;;;5.13;4.00;;;19.90;99.90;;;;;;5030552;28;20199;-74
2021/06/20 04:31:16;;;;;;;5.20;3.47;;;19.90;99.90;;;;;;5029715;28;20266;-72
2021/06/20 04:33:45;;;;;;;3.85;3.50;;;19.80;99.90;;;;;;5030590;28;20283;-73
2021/06/20 04:36:12;;;;;;;8.43;6.13;;;19.60;99.90;;;;;;5037807;28;20248;-73
2021/06/20 04:38:39;;;;;;;7.63;6.22;;;19.80;99.90;;;;;;5033914;28;20254;-73
2021/06/20 04:41:08;;;;;;;14.50;4.82;;;19.90;99.90;;;;;;5030553;28;20294;-72
2021/06/20 04:43:55;;;;;;;6.30;3.88;;;20.00;99.90;;;;;;5030084;28;20231;-72
2021/06/20 04:46:26;;;;;;;5.75;4.35;;;20.10;99.90;;;;;;5030020;28;20226;-77
2021/06/20 04:48:56;;;;;;;5.03;3.72;;;19.90;99.90;;;;;;5030148;28;20686;-75
2021/06/20 04:51:24;;;;;;;5.32;4.82;;;20.00;99.90;;;;;;5029677;28;20744;-76
2021/06/20 04:53:51;;;;;;;6.28;5.20;;;20.00;99.90;;;;;;5030087;28;20212;-75
2021/06/20 04:56:18;;;;;;;6.50;4.47;;;20.20;99.90;;;;;;5029779;28;20240;-77
2021/06/20 04:58:45;;;;;;;5.75;3.33;;;20.00;99.90;;;;;;5020527;28;20261;-77
2021/06/20 05:01:12;;;;;;;8.52;4.32;;;20.00;99.90;;;;;;5026064;28;20215;-74
2021/06/20 05:03:39;;;;;;;6.53;4.90;;;20.00;99.90;;;;;;5030912;28;20258;-71
2021/06/20 05:06:08;;;;;;;5.55;4.13;;;20.00;99.90;;;;;;5030608;28;20228;-72
2021/06/20 05:08:35;;;;;;;6.15;4.72;;;19.90;99.90;;;;;;5029871;28;20265;-71
2021/06/20 05:11:02;;;;;;;7.93;4.60;;;20.00;99.90;;;;;;5032199;28;20273;-71
2021/06/20 05:13:29;;;;;;;6.68;4.68;;;20.20;99.90;;;;;;5042005;28;20212;-71
2021/06/20 05:15:56;;;;;;;5.63;4.53;;;20.20;99.90;;;;;;5034157;28;20222;-72
2021/06/20 05:18:23;;;;;;;7.93;7.43;;;20.20;99.90;;;;;;5033417;28;20253;-74
2021/06/20 05:20:50;;;;;;;7.57;4.38;;;20.30;99.90;;;;;;5034441;28;20207;-74
2021/06/20 05:23:20;;;;;;;5.10;3.38;;;20.30;99.90;;;;;;5033434;28;20215;-73
2021/06/20 05:25:47;;;;;;;6.78;3.70;;;20.50;99.90;;;;;;5034063;28;20234;-73
2021/06/20 05:28:14;;;;;;;8.43;7.30;;;20.60;99.90;;;;;;5033614;28;20215;-73
2021/06/20 05:30:45;;;;;;;21.42;6.85;;;20.60;99.90;;;;;;5033867;28;20219;-74
2021/06/20 05:33:12;;;;;;;9.15;4.15;;;20.60;99.90;;;;;;5033695;28;20204;-73
2021/06/20 05:35:39;;;;;;;8.85;4.50;;;20.60;99.90;;;;;;5034059;28;20698;-74
2021/06/20 05:38:06;;;;;;;5.35;4.80;;;20.60;99.90;;;;;;5034152;28;20226;-74
2021/06/20 05:40:35;;;;;;;4.15;3.75;;;20.60;99.90;;;;;;5033037;28;20211;-72
2021/06/20 05:43:03;;;;;;;4.57;3.33;;;20.60;99.90;;;;;;5032987;28;20744;-73
2021/06/20 05:45:30;;;;;;;5.90;3.95;;;20.70;99.90;;;;;;5031499;28;20204;-75
2021/06/20 05:47:57;;;;;;;5.07;4.13;;;20.70;99.90;;;;;;5033778;28;20253;-72
2021/06/20 05:50:24;;;;;;;4.43;3.35;;;20.70;99.90;;;;;;5032891;28;20258;-71
2021/06/20 05:52:51;;;;;;;3.70;3.22;;;20.60;99.90;;;;;;5033282;28;20207;-72
2021/06/20 05:55:18;;;;;;;7.03;4.05;;;20.60;99.90;;;;;;5032962;28;20215;-71
2021/06/20 05:57:47;;;;;;;3.50;2.88;;;20.50;99.90;;;;;;5031206;28;20207;-72
2021/06/20 06:00:15;;;;;;;3.72;2.97;;;20.70;99.90;;;;;;5021396;28;20200;-77
2021/06/20 06:02:42;;;;;;;3.70;3.40;;;20.60;99.90;;;;;;5033115;28;20752;-73
2021/06/20 06:05:10;;;;;;;3.28;2.95;;;20.60;99.90;;;;;;5033249;28;20262;-72
2021/06/20 06:07:38;;;;;;;3.92;3.63;;;20.80;99.90;;;;;;5033425;28;20243;-74
2021/06/20 06:10:05;;;;;;;3.95;3.42;;;20.60;99.90;;;;;;5030807;28;20262;-73
2021/06/20 06:12:33;;;;;;;8.98;5.55;;;20.60;99.90;;;;;;5032673;28;20262;-73
2021/06/20 06:15:01;;;;;;;8.10;5.55;;;20.70;99.90;;;;;;5030394;28;20204;-75
2021/06/20 06:17:28;;;;;;;36.53;8.23;;;20.80;99.90;;;;;;5022878;28;20215;-73
2021/06/20 06:19:55;;;;;;;8.25;5.75;;;20.90;99.90;;;;;;5032567;28;20215;-72
2021/06/20 06:22:23;;;;;;;10.10;5.88;;;20.80;99.90;;;;;;5031527;28;20212;-72
2021/06/20 06:24:53;;;;;;;12.40;5.65;;;20.80;99.90;;;;;;5032578;28;20294;-72
2021/06/20 06:27:20;;;;;;;9.93;5.80;;;21.00;99.90;;;;;;5028830;28;20278;-72
2021/06/20 06:29:47;;;;;;;10.25;6.05;;;21.10;99.90;;;;;;5026460;28;20686;-72
2021/06/20 06:32:16;;;;;;;15.23;7.70;;;21.30;99.90;;;;;;5032055;28;20203;-74
2021/06/20 06:34:43;;;;;;;15.80;10.88;;;21.60;99.90;;;;;;5031320;28;20208;-73
2021/06/20 06:37:10;;;;;;;15.98;7.72;;;21.80;99.90;;;;;;5031743;28;20641;-73
2021/06/20 06:39:37;;;;;;;26.13;8.93;;;22.00;99.90;;;;;;5033122;28;20208;-74
2021/06/20 06:42:05;;;;;;;12.30;8.30;;;22.30;99.90;;;;;;5032290;28;20265;-74
2021/06/20 06:44:32;;;;;;;10.75;7.00;;;22.60;99.90;;;;;;5032205;28;20290;-74
2021/06/20 06:46:59;;;;;;;18.20;10.23;;;22.60;99.90;;;;;;5032196;28;20636;-74
2021/06/20 06:49:27;;;;;;;12.82;6.78;;;22.80;99.90;;;;;;5031687;28;20670;-74
2021/06/20 06:51:54;;;;;;;14.00;7.90;;;23.00;99.90;;;;;;5032190;28;20671;-73
2021/06/20 06:54:21;;;;;;;18.95;7.88;;;23.30;99.90;;;;;;5031819;28;20210;-74
2021/06/20 06:56:48;;;;;;;9.52;8.65;;;23.60;99.90;;;;;;5032516;28;20207;-78
2021/06/20 06:59:15;;;;;;;28.83;26.15;;;23.60;99.90;;;;;;5019098;28;20216;-74
2021/06/20 07:01:44;;;;;;;8.32;7.68;;;23.40;99.90;;;;;;5032213;28;20563;-78
2021/06/20 07:04:11;;;;;;;10.02;9.00;;;23.00;99.90;;;;;;5032000;28;20265;-73
2021/06/20 07:06:39;;;;;;;21.33;10.98;;;22.50;99.90;;;;;;5032225;28;20227;-78
2021/06/20 07:09:06;;;;;;;5.30;4.78;;;22.30;99.90;;;;;;5024645;28;20208;-78
2021/06/20 07:11:33;;;;;;;7.03;4.72;;;21.80;99.90;;;;;;5025920;28;20207;-80
2021/06/20 07:14:00;;;;;;;10.50;6.32;;;21.50;99.90;;;;;;5025621;28;20208;-78
2021/06/20 07:16:27;;;;;;;10.75;5.40;;;21.20;99.90;;;;;;5020537;28;20212;-79
2021/06/20 07:18:54;;;;;;;10.77;7.18;;;21.10;99.90;;;;;;5022419;28;20299;-73
2021/06/20 07:21:21;;;;;;;10.55;5.55;;;21.00;99.90;;;;;;5020261;28;20204;-73
2021/06/20 07:23:50;;;;;;;6.13;5.53;;;21.00;99.90;;;;;;5028252;28;20201;-76
2021/06/20 07:26:17;;;;;;;7.75;5.53;;;21.00;99.90;;;;;;5024326;28;20273;-75
2021/06/20 07:28:45;;;;;;;11.75;6.70;;;21.00;99.90;;;;;;5031595;28;20204;-75
2021/06/20 07:31:12;;;;;;;12.90;11.75;;;21.00;99.90;;;;;;5030908;28;20207;-76
2021/06/20 07:33:39;;;;;;;10.65;7.38;;;21.00;99.90;;;;;;5031424;28;20618;-73
2021/06/20 07:36:10;;;;;;;10.07;3.42;;;20.90;99.90;;;;;;5031850;28;20207;-75
2021/06/20 07:38:37;;;;;;;9.27;7.05;;;20.80;99.90;;;;;;5031808;28;20212;-75
2021/06/20 07:41:06;;;;;;;9.77;5.30;;;20.80;99.90;;;;;;5031007;28;20215;-74
2021/06/20 07:43:32;;;;;;;6.18;5.38;;;20.80;99.90;;;;;;5029508;28;20254;-75
2021/06/20 07:45:59;;;;;;;9.85;5.72;;;20.90;99.90;;;;;;5027120;28;20265;-76
2021/06/20 07:48:27;;;;;;;12.98;7.53;;;20.90;99.90;;;;;;5028373;28;20265;-78
2021/06/20 07:50:54;;;;;;;8.15;5.25;;;20.80;99.90;;;;;;5030536;28;20262;-78
2021/06/20 07:53:22;;;;;;;16.38;5.57;;;20.80;99.90;;;;;;5023538;28;20215;-76
2021/06/20 07:55:49;;;;;;;10.70;6.85;;;20.80;99.90;;;;;;5030668;28;20203;-77
2021/06/20 07:58:17;;;;;;;17.27;15.40;;;20.90;99.90;;;;;;5022824;28;20204;-76
2021/06/20 08:00:44;;;;;;;10.75;6.50;;;20.90;99.90;;;;;;5014002;28;20212;-78
2021/06/20 08:03:11;;;;;;;10.82;6.30;;;21.10;99.90;;;;;;5024938;28;20679;-76
2021/06/20 08:05:38;;;;;;;12.60;9.15;;;21.40;99.90;;;;;;5022305;28;20212;-79
2021/06/20 08:08:06;;;;;;;12.15;7.88;;;21.50;99.90;;;;;;5029264;28;20658;-82
2021/06/20 08:10:33;;;;;;;11.93;6.18;;;21.60;99.90;;;;;;5025292;28;20213;-79
2021/06/20 08:13:00;;;;;;;13.18;7.13;;;21.60;99.90;;;;;;5030052;28;20729;-79
2021/06/20 08:15:28;;;;;;;10.75;7.28;;;22.00;99.90;;;;;;5030564;28;20211;-83
2021/06/20 08:17:55;;;;;;;12.68;8.57;;;22.00;99.90;;;;;;5030487;28;20255;-79
2021/06/20 08:20:22;;;;;;;8.27;6.68;;;21.90;99.90;;;;;;5016626;28;20211;-78
2021/06/20 08:22:49;;;;;;;12.55;9.32;;;21.60;99.90;;;;;;5030985;28;20203;-77
2021/06/20 08:25:16;;;;;;;12.65;7.38;;;21.60;99.90;;;;;;5030320;28;20210;-77
2021/06/20 08:27:44;;;;;;;13.07;7.05;;;21.60;99.90;;;;;;5030819;28;20318;-78
2021/06/20 08:30:13;;;;;;;11.32;6.45;;;21.90;99.90;;;;;;5030114;28;20219;-76
2021/06/20 08:32:41;;;;;;;12.43;7.20;;;21.90;99.90;;;;;;5031286;28;20637;-77
2021/06/20 08:35:10;;;;;;;10.48;6.82;;;22.30;99.90;;;;;;5030920;28;20261;-77
2021/06/20 08:37:38;;;;;;;8.40;4.65;;;22.50;99.90;;;;;;5030902;28;20215;-78
2021/06/20 08:40:06;;;;;;;10.80;9.90;;;22.90;99.90;;;;;;5030150;28;20212;-77
2021/06/20 08:42:33;;;;;;;15.98;7.15;;;23.00;99.90;;;;;;5030590;28;20200;-77
2021/06/20 08:45:00;;;;;;;15.43;5.00;;;22.60;99.90;;;;;;5031501;28;20668;-77
2021/06/20 08:47:27;;;;;;;17.05;15.63;;;22.50;99.90;;;;;;5036582;28;20293;-78
2021/06/20 08:49:56;;;;;;;34.08;13.90;;;22.50;99.90;;;;;;5037399;28;20284;-77
2021/06/20 08:52:23;;;;;;;53.03;8.38;;;22.30;99.90;;;;;;5036291;28;20591;-78
2021/06/20 08:55:03;;;;;;;16.05;8.63;;;22.10;99.90;;;;;;5037077;28;20203;-80
2021/06/20 08:57:31;;;;;;;18.25;9.35;;;22.10;99.90;;;;;;5036336;28;20290;-77
2021/06/20 08:59:58;;;;;;;30.00;12.65;;;22.20;99.90;;;;;;5036818;28;20281;-77
2021/06/20 09:02:26;;;;;;;7.85;4.55;;;22.30;99.90;;;;;;5036668;28;20215;-78
2021/06/20 09:04:59;;;;;;;17.70;12.55;;;22.20;99.90;;;;;;5036925;28;20634;-77
2021/06/20 09:07:34;;;;;;;11.55;6.22;;;22.40;99.90;;;;;;5036676;28;20238;-78
2021/06/20 09:10:13;;;;;;;11.52;10.48;;;22.60;99.90;;;;;;5036646;28;20235;-78
2021/06/20 09:12:49;;;;;;;9.73;6.43;;;22.70;99.90;;;;;;5037473;28;20215;-78
2021/06/20 09:15:17;;;;;;;13.70;7.57;;;22.90;99.90;;;;;;5022490;28;20207;-78
2021/06/20 09:17:52;;;;;;;15.48;6.47;;;23.10;99.90;;;;;;5036795;28;20760;-78
2021/06/20 09:20:31;;;;;;;10.95;4.90;;;23.30;99.90;;;;;;5036585;28;20344;-78
2021/06/20 09:22:59;;;;;;;15.80;7.20;;;23.40;99.90;;;;;;5036668;28;20297;-79
2021/06/20 09:25:28;;;;;;;8.50;4.63;;;23.00;99.90;;;;;;5036283;28;20223;-78
2021/06/20 09:27:56;;;;;;;7.63;5.10;;;22.80;99.90;;;;;;5036621;28;20289;-78
2021/06/20 09:30:28;;;;;;;10.45;6.93;;;22.70;99.90;;;;;;5036269;28;20631;-78
2021/06/20 09:32:57;;;;;;;14.10;6.25;;;22.80;99.90;;;;;;5036800;28;20212;-78
2021/06/20 09:35:41;;;;;;;8.30;5.20;;;22.70;99.90;;;;;;5036366;28;20222;-78
2021/06/20 09:38:10;;;;;;;14.02;12.50;;;22.90;99.90;;;;;;5036922;28;20212;-77
2021/06/20 09:40:37;;;;;;;10.00;9.23;;;23.00;99.90;;;;;;5036822;28;20222;-78
2021/06/20 09:43:13;;;;;;;6.20;5.32;;;23.00;99.90;;;;;;5036338;28;20294;-78
2021/06/20 09:45:44;;;;;;;7.63;4.80;;;23.10;99.90;;;;;;5036908;28;20302;-78
2021/06/20 09:48:22;;;;;;;18.13;5.70;;;22.90;99.90;;;;;;5036712;28;20234;-76
2021/06/20 09:50:51;;;;;;;11.00;6.38;;;22.70;99.90;;;;;;5036192;28;20207;-78
2021/06/20 09:53:23;;;;;;;15.05;8.73;;;22.70;99.90;;;;;;5036413;28;20257;-78
2021/06/20 09:56:11;;;;;;;10.13;4.72;;;22.70;99.90;;;;;;5036544;28;20262;-77
2021/06/20 09:58:42;;;;;;;14.38;7.88;;;22.80;99.90;;;;;;5023186;28;20235;-78
2021/06/20 10:01:10;;;;;;;9.30;4.75;;;22.70;99.90;;;;;;5029435;28;20584;-78
2021/06/20 10:03:37;;;;;;;12.02;4.65;;;22.70;99.90;;;;;;5033875;28;20319;-78
2021/06/20 10:06:06;;;;;;;12.65;5.57;;;22.60;99.90;;;;;;5033375;28;20207;-78
2021/06/20 10:08:34;;;;;;;13.20;6.22;;;22.50;99.90;;;;;;5033098;28;20239;-79
2021/06/20 10:11:01;;;;;;;12.90;6.85;;;22.70;99.90;;;;;;5033508;28;20655;-78
2021/06/20 10:13:28;;;;;;;16.70;5.43;;;22.80;99.90;;;;;;5032555;28;20204;-77
2021/06/20 10:15:57;;;;;;;10.90;5.68;;;23.00;99.90;;;;;;5032805;28;20207;-78
2021/06/20 10:18:26;;;;;;;12.07;5.82;;;23.20;99.90;;;;;;5032491;28;20306;-78
2021/06/20 10:20:58;;;;;;;7.97;4.88;;;23.40;99.90;;;;;;5033370;28;20214;-77
2021/06/20 10:23:27;;;;;;;7.80;4.95;;;23.50;99.90;;;;;;5032527;28;20290;-78
2021/06/20 10:26:04;;;;;;;11.95;6.03;;;23.60;99.90;;;;;;5024975;28;20668;-78
2021/06/20 10:28:32;;;;;;;10.32;5.43;;;23.40;99.90;;;;;;5028748;28;20227;-78
2021/06/20 10:31:07;;;;;;;16.48;9.40;;;23.50;99.90;;;;;;5028424;28;20207;-75
2021/06/20 10:33:37;;;;;;;11.05;6.35;;;23.70;99.90;;;;;;5027569;28;20294;-75
2021/06/20 10:36:09;;;;;;;9.10;6.00;;;23.80;99.90;;;;;;5031819;28;20290;-75
2021/06/20 10:38:42;;;;;;;7.07;3.65;;;23.80;99.90;;;;;;5029368;28;20686;-75
2021/06/20 10:41:20;;;;;;;3.72;3.25;;;23.70;99.90;;;;;;5025297;28;20208;-77
2021/06/20 10:43:55;;;;;;;5.53;3.40;;;24.00;99.90;;;;;;5025073;28;20631;-79
2021/06/20 10:46:22;;;;;;;9.43;4.50;;;24.40;99.90;;;;;;5030408;28;20203;-75
2021/06/20 10:48:49;;;;;;;15.23;6.53;;;24.70;99.90;;;;;;5025925;28;20289;-76
2021/06/20 10:51:20;;;;;;;11.90;5.80;;;25.20;99.90;;;;;;5027492;28;20262;-74
2021/06/20 10:53:48;;;;;;;16.88;7.22;;;25.50;99.90;;;;;;5022944;28;20257;-74
2021/06/20 10:56:22;;;;;;;14.30;7.20;;;25.60;99.90;;;;;;5031705;28;20203;-75
2021/06/20 10:58:51;;;;;;;15.07;9.35;;;25.60;99.90;;;;;;5030051;28;20211;-74
2021/06/20 11:01:21;;;;;;;9.50;5.78;;;25.80;99.90;;;;;;5029453;28;20211;-74
2021/06/20 11:04:00;;;;;;;16.73;6.55;;;25.70;99.90;;;;;;5026391;28;20203;-76
2021/06/20 11:06:28;;;;;;;12.70;7.32;;;25.60;99.90;;;;;;5031658;28;20295;-74
2021/06/20 11:08:59;;;;;;;10.05;4.90;;;25.70;99.90;;;;;;5031313;28;20289;-75
2021/06/20 11:11:27;;;;;;;15.60;6.80;;;26.10;99.90;;;;;;5030367;28;20208;-74
2021/06/20 11:14:08;;;;;;;11.05;6.50;;;26.10;99.90;;;;;;5026626;28;20216;-76
2021/06/20 11:16:37;;;;;;;14.02;6.82;;;25.70;99.90;;;;;;5028949;28;20200;-74
2021/06/20 11:19:09;;;;;;;9.98;5.72;;;26.10;99.90;;;;;;5017704;28;20208;-74
2021/06/20 11:21:38;;;;;;;16.73;7.80;;;26.40;99.90;;;;;;5025693;28;20687;-72
2021/06/20 11:24:07;;;;;;;10.38;6.22;;;26.10;99.90;;;;;;5024566;28;20581;-76
2021/06/20 11:26:34;;;;;;;11.82;10.82;;;26.30;99.90;;;;;;5018580;28;20203;-79
2021/06/20 11:29:04;;;;;;;5.47;3.83;;;26.70;99.90;;;;;;5019354;28;20240;-77
2021/06/20 11:31:31;;;;;;;12.40;4.72;;;26.50;99.90;;;;;;5019616;28;20215;-79
2021/06/20 11:33:59;;;;;;;15.05;12.13;;;26.20;99.90;;;;;;5028929;28;20207;-79
2021/06/20 11:36:28;;;;;;;8.35;5.30;;;26.10;99.90;;;;;;5026264;28;20203;-78
2021/06/20 11:38:55;;;;;;;12.10;5.82;;;26.80;99.90;;;;;;5027782;28;20295;-78
2021/06/20 11:41:24;;;;;;;6.78;4.38;;;26.60;99.90;;;;;;5028456;28;20215;-79
2021/06/20 11:44:00;;;;;;;9.13;4.47;;;26.30;99.90;;;;;;5028922;28;20207;-79
2021/06/20 11:46:29;;;;;;;31.73;5.47;;;26.70;99.90;;;;;;5030372;28;20245;-82
2021/06/20 11:48:59;;;;;;;19.77;5.53;;;26.50;99.90;;;;;;5029854;28;20231;-79
2021/06/20 11:51:35;;;;;;;13.35;10.25;;;26.40;99.90;;;;;;5027394;28;20633;-81
2021/06/20 11:54:10;;;;;;;12.70;5.75;;;26.30;99.90;;;;;;5028503;28;20226;-82
2021/06/20 11:56:39;;;;;;;8.27;4.43;;;26.20;99.90;;;;;;5031344;28;20586;-77
2021/06/20 11:59:06;;;;;;;8.65;4.93;;;26.70;99.90;;;;;;5029882;28;20214;-75
2021/06/20 12:01:41;;;;;;;7.20;4.32;;;26.60;99.90;;;;;;5029679;28;20206;-76
2021/06/20 12:04:09;;;;;;;8.10;3.90;;;26.70;99.90;;;;;;5030685;28;20744;-75
2021/06/20 12:06:38;;;;;;;15.68;9.07;;;26.70;99.90;;;;;;5028607;28;20552;-76
2021/06/20 12:09:07;;;;;;;9.02;4.32;;;26.80;99.90;;;;;;5027771;28;20234;-75
2021/06/20 12:11:35;;;;;;;8.55;4.80;;;26.80;99.90;;;;;;5023286;28;20261;-78
2021/06/20 12:14:04;;;;;;;8.57;5.25;;;26.20;99.90;;;;;;5026289;28;20267;-78
2021/06/20 12:16:32;;;;;;;13.32;4.43;;;26.00;99.90;;;;;;5026945;28;20566;-78
2021/06/20 12:19:00;;;;;;;11.00;4.53;;;26.00;99.90;;;;;;5024996;28;20215;-85
2021/06/20 12:21:29;;;;;;;12.45;5.60;;;27.00;99.90;;;;;;5020246;28;20205;-88
2021/06/20 12:23:57;;;;;;;4.95;3.10;;;27.70;99.90;;;;;;5029172;28;20215;-77
2021/06/20 12:26:28;;;;;;;7.97;3.60;;;27.80;99.90;;;;;;5018413;28;20214;-80
2021/06/20 12:28:55;;;;;;;9.52;5.30;;;27.80;99.90;;;;;;5017220;28;20231;-80
2021/06/20 12:31:25;;;;;;;8.82;3.95;;;27.90;99.90;;;;;;5030632;28;20211;-77
2021/06/20 12:34:00;;;;;;;12.63;4.53;;;28.10;99.90;;;;;;5029199;28;20204;-80
2021/06/20 12:36:28;;;;;;;10.45;4.97;;;28.30;99.90;;;;;;5022576;28;20203;-76
2021/06/20 12:38:55;;;;;;;13.55;12.25;;;27.60;99.90;;;;;;5029962;28;20208;-81
2021/06/20 12:41:26;;;;;;;10.20;4.70;;;27.40;99.90;;;;;;5030399;28;20632;-85
2021/06/20 12:44:01;;;;;;;15.00;4.78;;;28.00;99.90;;;;;;5021787;28;20207;-79
2021/06/20 12:46:34;;;;;;;10.23;4.05;;;28.00;99.90;;;;;;5025633;28;20211;-81
2021/06/20 12:49:10;;;;;;;7.80;3.70;;;28.00;99.90;;;;;;5025054;28;20615;-78